createdAt,value
2022-10-05T03:57:36.971Z,20.25
2022-10-05T04:00:13.551Z,16.52
2022-10-05T04:02:46.125Z,18.98
2022-10-05T04:05:12.980Z,18.63
2022-10-05T04:07:31.140Z,18.67
2022-10-05T04:09:47.828Z,18.08
2022-10-05T04:12:06.606Z,14.93
2022-10-05T04:14:35.299Z,15.82
2022-10-05T04:16:48.328Z,19.27
2022-10-05T04:18:57.051Z,17.92
2022-10-05T04:21:09.782Z,18.50
2022-10-05T04:23:21.409Z,19.83
2022-10-05T04:25:34.159Z,18.60
2022-10-05T04:27:44.620Z,18.52
2022-10-05T04:30:13.203Z,16.27
2022-10-05T04:32:27.920Z,17.02
2022-10-05T04:34:39.220Z,17.27
2022-10-05T04:36:55.203Z,19.65
2022-10-05T04:39:21.130Z,17.02
2022-10-05T04:41:41.668Z,20.23
2022-10-05T04:43:44.091Z,21.58
2022-10-05T04:46:06.770Z,17.83
2022-10-05T04:50:48.013Z,20.25
2022-10-05T04:53:13.481Z,17.85
2022-10-05T04:55:41.811Z,19.05
2022-10-05T04:58:21.699Z,19.00
2022-10-05T05:00:45.294Z,18.00
2022-10-05T05:03:13.569Z,19.27
2022-10-05T05:05:41.479Z,19.83
2022-10-05T05:08:40.139Z,20.08
2022-10-05T05:11:16.178Z,18.83
2022-10-05T05:13:28.972Z,18.40
2022-10-05T05:15:53.354Z,20.53
2022-10-05T05:17:56.020Z,18.75
2022-10-05T05:20:20.751Z,17.70
2022-10-05T05:22:45.139Z,20.23
2022-10-05T05:25:16.149Z,21.40
2022-10-05T05:27:47.493Z,20.23
2022-10-05T05:30:23.360Z,19.50
2022-10-05T05:32:47.683Z,19.33
2022-10-05T05:35:17.679Z,16.27
2022-10-05T05:37:24.098Z,16.90
2022-10-05T05:39:34.289Z,17.20
2022-10-05T05:41:40.860Z,17.65
2022-10-05T05:44:06.649Z,17.52
2022-10-05T05:46:38.812Z,19.42
2022-10-05T05:48:47.651Z,17.85
2022-10-05T05:51:11.558Z,20.65
2022-10-05T05:53:22.478Z,17.85
2022-10-05T05:55:36.629Z,18.52
2022-10-05T05:57:56.923Z,15.98
2022-10-05T06:00:20.999Z,17.92
2022-10-05T06:02:32.917Z,17.83
2022-10-05T06:04:42.352Z,17.63
2022-10-05T06:06:49.454Z,17.13
2022-10-05T06:08:57.378Z,17.20
2022-10-05T06:11:06.858Z,16.95
2022-10-05T06:13:42.061Z,16.95
2022-10-05T06:16:12.400Z,17.58
2022-10-05T06:18:21.731Z,14.77
2022-10-05T06:20:34.361Z,13.75
2022-10-05T06:22:42.498Z,15.45
2022-10-05T06:25:12.540Z,10.45
2022-10-05T06:27:55.631Z,13.77
2022-10-05T06:32:32.459Z,14.13
2022-10-05T06:35:12.411Z,12.63
2022-10-05T06:37:29.238Z,12.75
2022-10-05T06:40:09.781Z,13.48
2022-10-05T06:42:28.560Z,12.80
2022-10-05T06:44:35.201Z,12.70
2022-10-05T06:46:52.931Z,12.00
2022-10-05T06:49:07.689Z,11.65
2022-10-05T06:51:27.662Z,11.98
2022-10-05T06:53:41.340Z,10.73
2022-10-05T06:56:02.728Z,11.38
2022-10-05T06:58:32.373Z,10.38
2022-10-05T07:01:11.948Z,11.90
2022-10-05T07:03:36.431Z,11.50
2022-10-05T07:05:58.820Z,13.30
2022-10-05T07:08:13.662Z,8.48
2022-10-05T07:10:37.169Z,12.18
2022-10-05T07:12:59.821Z,12.07
2022-10-05T07:17:58.788Z,12.10
2022-10-05T07:20:18.011Z,11.52
2022-10-05T07:22:29.390Z,10.45
2022-10-05T07:24:41.580Z,9.90
2022-10-05T07:26:51.578Z,11.05
2022-10-05T07:29:00.622Z,10.70
2022-10-05T07:31:14.301Z,10.57
2022-10-05T07:33:36.982Z,10.15
2022-10-05T07:36:22.701Z,9.70
2022-10-05T07:38:34.251Z,9.27
2022-10-05T07:40:58.761Z,9.17
2022-10-05T07:43:20.055Z,7.43
2022-10-05T07:45:43.364Z,10.43
2022-10-05T07:47:55.761Z,10.90
2022-10-05T07:52:52.912Z,12.10
2022-10-05T07:55:12.882Z,10.40
2022-10-05T07:57:19.359Z,11.32
2022-10-05T07:59:38.351Z,10.40
2022-10-05T08:01:50.986Z,10.15
2022-10-05T08:04:14.399Z,9.68
2022-10-05T08:06:46.610Z,10.05
2022-10-05T08:08:57.837Z,11.23
2022-10-05T08:11:18.219Z,8.43
2022-10-05T08:13:23.919Z,10.50
2022-10-05T08:15:37.454Z,9.75
2022-10-05T08:18:03.211Z,11.32
2022-10-05T08:20:50.557Z,11.23
2022-10-05T08:23:13.859Z,9.32
2022-10-05T08:25:26.907Z,9.85
2022-10-05T08:27:48.349Z,8.52
2022-10-05T08:30:05.704Z,10.32
2022-10-05T08:32:26.098Z,10.45
2022-10-05T08:34:31.467Z,10.00
2022-10-05T08:36:39.921Z,10.35
2022-10-05T08:38:43.389Z,7.95
2022-10-05T08:41:23.199Z,8.70
2022-10-05T08:43:44.029Z,10.00
2022-10-05T08:45:58.835Z,9.60
2022-10-05T08:48:19.437Z,10.80
2022-10-05T08:50:50.296Z,9.77
2022-10-05T08:53:19.919Z,10.07
2022-10-05T08:55:45.628Z,9.50
2022-10-05T08:58:06.489Z,10.30
2022-10-05T09:00:22.859Z,10.65
2022-10-05T09:02:51.357Z,8.50
2022-10-05T09:05:13.271Z,9.85
2022-10-05T09:07:36.217Z,9.82
2022-10-05T09:10:06.219Z,9.50
2022-10-05T09:12:26.921Z,9.63
2022-10-05T09:14:35.568Z,9.25
2022-10-05T09:17:12.477Z,8.45
2022-10-05T09:19:42.287Z,9.88
2022-10-05T09:21:59.416Z,8.75
2022-10-05T09:24:28.388Z,10.52
2022-10-05T09:27:00.027Z,9.88
2022-10-05T09:29:32.819Z,9.88
2022-10-05T09:32:24.418Z,9.52
2022-10-05T09:34:51.878Z,8.23
2022-10-05T09:37:16.327Z,9.65
2022-10-05T09:39:24.712Z,8.57
2022-10-05T09:42:02.887Z,8.05
2022-10-05T09:44:49.707Z,7.78
2022-10-05T09:47:15.478Z,8.00
2022-10-05T09:49:56.717Z,7.60
2022-10-05T09:52:09.029Z,8.27
2022-10-05T09:54:32.857Z,8.32
2022-10-05T09:57:25.839Z,7.80
2022-10-05T10:00:01.467Z,7.90
2022-10-05T10:02:45.621Z,7.10
2022-10-05T10:05:06.379Z,7.63
2022-10-05T10:07:25.109Z,7.07
2022-10-05T10:09:53.437Z,6.40
2022-10-05T10:12:19.859Z,6.53
2022-10-05T10:15:02.519Z,6.85
2022-10-05T10:19:44.258Z,7.82
2022-10-05T10:22:01.607Z,7.72
2022-10-05T10:24:30.088Z,7.85
2022-10-05T10:26:56.389Z,7.07
2022-10-05T10:29:34.256Z,7.68
2022-10-05T10:31:51.034Z,7.30
2022-10-05T10:34:30.640Z,6.65
2022-10-05T10:36:36.168Z,6.00
2022-10-05T10:38:59.579Z,6.07
2022-10-05T10:41:23.029Z,7.80
2022-10-05T10:43:44.380Z,7.88
2022-10-05T10:46:13.106Z,7.07
2022-10-05T10:48:31.007Z,7.80
2022-10-05T10:51:11.047Z,7.70
2022-10-05T10:53:47.038Z,7.50
2022-10-05T10:56:10.727Z,7.15
2022-10-05T10:58:35.353Z,6.25
2022-10-05T11:00:46.779Z,6.32
2022-10-05T11:03:06.127Z,6.85
2022-10-05T11:05:49.064Z,7.32
2022-10-05T11:08:30.547Z,6.43
2022-10-05T11:11:00.598Z,6.43
2022-10-05T11:13:17.479Z,7.00
2022-10-05T11:15:37.571Z,7.38
2022-10-05T11:17:50.097Z,7.13
2022-10-05T11:20:05.419Z,6.40
2022-10-05T11:22:52.339Z,4.93
2022-10-05T11:25:05.509Z,6.82
2022-10-05T11:27:08.737Z,6.22
2022-10-05T11:29:29.770Z,6.32
2022-10-05T11:31:47.763Z,5.30
2022-10-05T11:34:31.959Z,5.85
2022-10-05T11:36:54.069Z,5.43
2022-10-05T11:39:15.070Z,6.35
2022-10-05T11:41:33.337Z,5.32
2022-10-05T11:43:44.899Z,6.28
2022-10-05T11:46:05.775Z,5.83
2022-10-05T11:48:36.169Z,6.22
2022-10-05T11:51:18.759Z,5.50
2022-10-05T11:53:30.899Z,5.93
2022-10-05T11:55:47.820Z,5.40
2022-10-05T11:58:27.497Z,5.55
2022-10-05T12:00:55.869Z,5.93
2022-10-05T19:14:35.179Z,32.80
2022-10-05T19:17:00.229Z,32.08
2022-10-05T19:19:49.491Z,30.15
2022-10-05T19:22:33.489Z,29.50
2022-10-05T19:24:52.746Z,27.08
2022-10-05T19:27:11.833Z,27.05
2022-10-05T19:29:37.110Z,29.63
2022-10-05T19:31:58.199Z,26.83
2022-10-05T19:34:41.599Z,29.10
2022-10-05T19:36:54.714Z,29.02
2022-10-05T19:39:11.107Z,28.80
2022-10-05T19:41:28.188Z,30.80
2022-10-05T19:43:47.847Z,31.25
2022-10-05T19:46:08.652Z,29.58
2022-10-05T19:48:17.307Z,29.15
2022-10-05T19:50:33.678Z,29.67
2022-10-05T19:52:47.650Z,30.67
2022-10-05T19:55:24.612Z,28.70
2022-10-05T19:57:27.199Z,29.45
